Terminal Aerodrome Forecast
Issued by NWS

Home | Current Version | Previous Version | Text Only | Print | Product List | Glossary On
Versions: 1 2 3 4 5 6 7 8 9 10 11 12 13 14
000
FTUS45 KVEF 140300 AAB
TAFHND
TAF AMD
KHND 140302Z 1403/1424 14013G24KT P6SM VCSH BKN130 BKN200
     FM140800 18009KT P6SM BKN130 BKN200
     FM141500 VRB05KT P6SM BKN180=

USA.gov is the U.S. government's official web portal to all federal, state and local government web resources and services.